Time;durP1;ratioP1;P1;durP2;ratioP2;P2;SDS_P1;SDS_P2;PMS_P1;PMS_P2;Temp;Humidity;BMP_temperature;BMP_pressure;BME280_temperature;BME280_humidity;BME280_pressure;Samples;Min_cycle;Max_cycle;Signal;HPM_P1;HPM_P2
2022/08/04 00:02:37;;;;;;;8.77;3.30;;;;;;;19.02;88.14;101094.72;10399406;28;20083;-78
2022/08/04 00:08:08;;;;;;;4.45;3.30;;;;;;;19.01;87.55;101091.16;10400274;28;20084;-77
2022/08/04 00:13:09;;;;;;;7.57;3.58;;;;;;;18.98;87.55;101088.44;10362315;28;20371;-78
2022/08/04 00:18:10;;;;;;;5.53;3.92;;;;;;;18.87;87.30;101082.94;10382203;28;20120;-77
2022/08/04 00:23:10;;;;;;;6.93;3.30;;;;;;;18.78;87.23;101078.38;10357863;28;20069;-77
2022/08/04 00:28:11;;;;;;;5.40;3.30;;;;;;;18.76;88.13;101081.88;10326420;28;20500;-78
2022/08/04 00:33:12;;;;;;;11.63;4.15;;;;;;;18.67;88.22;101068.47;10381464;28;20061;-77
2022/08/04 00:38:14;;;;;;;9.23;5.10;;;;;;;18.60;89.56;101065.72;10405206;28;20045;-78
2022/08/04 00:43:30;;;;;;;;;;;;;;;18.49;89.85;101057.53;10411984;28;20033;-77
2022/08/04 00:49:05;;;;;;;6.40;3.40;;;;;;;18.41;90.38;101069.75;10430012;28;19920;-78
2022/08/04 00:54:30;;;;;;;9.27;3.50;;;;;;;18.35;90.97;101061.69;10447205;28;20485;-78
2022/08/04 00:59:57;;;;;;;10.90;3.70;;;;;;;18.28;90.89;101062.44;10429344;28;20427;-78
2022/08/04 01:05:30;;;;;;;7.30;3.15;;;;;;;18.25;91.22;101062.38;10435727;28;20103;-78
2022/08/04 01:10:40;;;;;;;5.85;3.15;;;;;;;18.20;91.90;101063.19;10415399;28;20044;-78
2022/08/04 01:15:53;;;;;;;6.13;2.95;;;;;;;18.16;91.92;101053.41;10429735;28;20431;-78
2022/08/04 01:21:28;;;;;;;13.98;4.63;;;;;;;18.15;92.21;101046.31;10388845;28;20037;-78
2022/08/04 01:26:47;;;;;;;9.10;3.03;;;;;;;18.13;92.53;101050.69;10446310;28;20048;-77
2022/08/04 01:32:01;;;;;;;6.88;3.35;;;;;;;18.17;93.42;101041.06;10403059;28;20029;-78
2022/08/04 01:37:11;;;;;;;9.60;4.40;;;;;;;18.33;92.21;101032.53;10402900;28;20045;-77
2022/08/04 01:42:12;;;;;;;6.05;3.65;;;;;;;18.48;90.45;101028.38;10388171;28;20441;-78
2022/08/04 01:47:12;;;;;;;7.10;3.30;;;;;;;18.64;88.39;101013.63;10387187;28;20034;-78
2022/08/04 01:52:13;;;;;;;10.43;3.42;;;;;;;18.68;87.36;101020.75;10371088;28;20047;-78
2022/08/04 01:57:15;;;;;;;9.30;4.27;;;;;;;18.80;85.92;101020.09;10387644;28;20092;-77
2022/08/04 02:02:15;;;;;;;9.10;3.17;;;;;;;18.80;85.87;101014.78;10386792;28;20657;-77
2022/08/04 02:07:32;;;;;;;6.40;3.15;;;;;;;18.66;85.95;101017.19;10406223;28;20351;-78
2022/08/04 02:12:47;;;;;;;8.73;2.90;;;;;;;18.52;86.63;101011.66;10387699;28;20061;-78
2022/08/04 02:18:04;;;;;;;8.80;3.75;;;;;;;18.39;86.92;101010.53;10410471;28;20033;-78
2022/08/04 02:23:09;;;;;;;10.23;3.08;;;;;;;18.24;87.54;101002.31;10402560;28;20044;-78
2022/08/04 02:28:37;;;;;;;11.52;2.95;;;;;;;18.15;88.58;100992.47;10403231;28;20049;-78
2022/08/04 02:33:55;;;;;;;8.73;4.32;;;;;;;18.11;90.04;100993.28;10400720;28;20045;-78
2022/08/04 02:38:58;;;;;;;11.55;4.00;;;;;;;18.07;90.34;100994.97;10402120;28;20081;-78
2022/08/04 02:44:00;;;;;;;7.97;2.70;;;;;;;18.18;88.55;100993.41;10384882;28;20072;-78
2022/08/04 02:49:02;;;;;;;;;;;;;;;18.25;87.51;100982.91;10385880;28;20033;-78
2022/08/04 02:54:04;;;;;;;6.00;3.13;;;;;;;18.22;87.48;100977.56;10401327;28;19943;-77
2022/08/04 02:59:09;;;;;;;8.43;2.90;;;;;;;18.25;87.03;100977.63;10385850;28;20528;-78
2022/08/04 03:04:35;;;;;;;14.00;4.05;;;;;;;18.23;87.03;100974.97;10386129;28;20532;-78
2022/08/04 03:10:11;;;;;;;8.27;4.28;;;;;;;18.12;87.16;100966.81;10398981;28;20565;-79
2022/08/04 03:15:15;;;;;;;9.18;3.55;;;;;;;18.04;87.86;100968.41;10423951;28;20120;-78
2022/08/04 03:20:32;;;;;;;8.73;2.97;;;;;;;17.98;88.17;100971.81;10443122;28;20086;-77
2022/08/04 03:25:48;;;;;;;8.15;3.97;;;;;;;17.93;88.71;100968.22;10366721;28;20037;-77
2022/08/04 03:31:02;;;;;;;7.70;3.42;;;;;;;17.91;89.31;100957.56;10400986;28;20462;-78
2022/08/04 03:36:37;;;;;;;10.73;3.80;;;;;;;17.93;89.59;100962.91;10332501;28;20041;-79
2022/08/04 03:41:40;;;;;;;8.18;3.17;;;;;;;18.01;88.61;100952.47;10349266;28;20498;-80
2022/08/04 03:47:10;;;;;;;8.73;3.00;;;;;;;17.97;88.56;100951.50;10399464;28;20044;-81
2022/08/04 03:57:51;;;;;;;8.93;2.95;;;;;;;18.02;88.14;100944.56;10398995;28;20137;-78
2022/08/04 04:02:54;;;;;;;10.65;3.63;;;;;;;17.91;88.77;100946.09;10397388;28;20393;-78
2022/08/04 04:08:07;;;;;;;10.43;3.83;;;;;;;17.84;89.80;100947.72;10401672;28;20158;-77
2022/08/04 04:13:32;;;;;;;13.20;5.50;;;;;;;17.79;90.82;100952.03;10395926;28;20120;-78
2022/08/04 04:19:11;;;;;;;7.25;3.33;;;;;;;17.77;91.30;100945.81;10401418;28;20045;-76
2022/08/04 04:24:41;;;;;;;10.82;3.60;;;;;;;17.86;90.42;100953.94;10364227;28;20103;-77
2022/08/04 04:30:20;;;;;;;7.97;4.03;;;;;;;17.99;89.27;100952.44;10400413;28;20721;-79
2022/08/04 04:35:54;;;;;;;3.92;2.50;;;;;;;18.07;88.89;100947.28;10379068;28;20175;-80
2022/08/04 04:41:25;;;;;;;9.35;2.88;;;;;;;18.14;89.04;100949.19;10406638;28;20081;-77
2022/08/04 04:46:42;;;;;;;7.25;3.55;;;;;;;18.26;88.81;100948.53;10387724;28;20046;-77
2022/08/04 04:52:23;;;;;;;9.10;2.92;;;;;;;18.52;87.19;100950.72;10359003;28;20034;-80
2022/08/04 04:57:24;;;;;;;12.88;3.25;;;;;;;18.67;87.10;100942.09;10351165;28;20516;-81
2022/08/04 05:02:33;;;;;;;11.37;4.67;;;;;;;18.73;86.72;100944.84;10430399;28;20041;-80
2022/08/04 05:08:11;;;;;;;11.25;4.35;;;;;;;18.90;86.53;100947.78;10428571;28;20033;-79
2022/08/04 05:13:25;;;;;;;6.10;2.75;;;;;;;19.06;85.40;100951.53;10433636;28;20025;-78
2022/08/04 05:18:26;;;;;;;7.63;2.83;;;;;;;19.34;84.60;100948.38;10428690;28;20048;-78
2022/08/04 05:23:28;;;;;;;5.17;2.27;;;;;;;19.55;83.25;100938.91;10428808;28;20409;-78
2022/08/04 05:28:42;;;;;;;9.43;2.80;;;;;;;19.72;83.28;100942.66;10411700;28;20404;-79
2022/08/04 05:34:06;;;;;;;11.32;2.97;;;;;;;19.72;84.51;100950.63;10378599;28;20053;-79
2022/08/04 05:39:11;;;;;;;12.30;3.75;;;;;;;20.01;84.37;100947.41;10374954;28;20045;-79
2022/08/04 05:44:14;;;;;;;9.70;2.60;;;;;;;21.26;80.87;100939.47;10342572;28;20049;-79
2022/08/04 05:49:14;;;;;;;13.18;5.07;;;;;;;22.98;74.22;100929.91;10402087;28;20038;-79
2022/08/04 05:54:15;;;;;;;10.70;5.23;;;;;;;24.41;67.84;100931.81;10388568;28;20489;-79
2022/08/04 05:59:15;;;;;;;11.83;2.73;;;;;;;24.93;65.94;100939.34;10380285;28;20041;-79
2022/08/04 06:04:16;;;;;;;12.40;3.95;;;;;;;25.56;64.90;100965.44;10383911;28;20076;-79
2022/08/04 06:09:16;;;;;;;14.23;3.73;;;;;;;26.46;58.21;100962.34;10394751;28;20120;-78
2022/08/04 06:14:17;;;;;;;13.03;2.63;;;;;;;27.44;54.08;100971.25;10368917;28;20044;-80
2022/08/04 06:19:17;;;;;;;8.45;2.75;;;;;;;28.26;53.29;100957.81;10391109;28;20045;-79
2022/08/04 06:24:18;;;;;;;;;;;;;;;28.53;50.44;100969.69;10401757;28;20485;-79
2022/08/04 06:29:32;;;;;;;9.27;3.60;;;;;;;28.95;49.82;100968.59;10399992;28;19988;-79
2022/08/04 06:34:33;;;;;;;9.05;3.65;;;;;;;28.27;50.69;100967.63;10346744;28;20524;-83
2022/08/04 06:39:34;;;;;;;;;;;;;;;28.58;50.16;100962.38;10401807;28;20038;-79
2022/08/04 06:44:34;;;;;;;12.87;3.50;;;;;;;30.23;47.68;100957.63;10384483;28;20342;-79
2022/08/04 06:49:36;;;;;;;15.20;3.53;;;;;;;30.68;46.65;100958.81;10372984;28;20112;-79
2022/08/04 06:54:36;;;;;;;11.38;5.82;;;;;;;30.53;45.55;100967.41;10346158;28;20474;-80
2022/08/04 06:59:37;;;;;;;7.72;3.47;;;;;;;30.63;46.15;100971.59;10412044;28;20088;-80
2022/08/04 07:04:37;;;;;;;10.10;3.40;;;;;;;30.67;45.72;100975.97;10392427;28;20036;-79
2022/08/04 07:09:38;;;;;;;8.07;3.80;;;;;;;31.04;43.89;100971.94;10391191;28;20045;-80
2022/08/04 07:14:39;;;;;;;13.45;4.10;;;;;;;32.00;42.28;100970.16;10358590;28;20112;-79
2022/08/04 07:19:40;;;;;;;10.00;3.42;;;;;;;32.80;39.74;100976.72;10438713;28;20484;-79
2022/08/04 07:24:40;;;;;;;8.85;3.03;;;;;;;32.18;40.31;100973.03;10421936;28;20190;-78
2022/08/04 07:29:41;;;;;;;13.45;3.80;;;;;;;32.53;39.65;100970.69;10440925;28;20071;-79
2022/08/04 07:34:42;;;;;;;12.13;4.63;;;;;;;31.92;41.00;100966.88;10413491;28;20040;-81
2022/08/04 07:39:42;;;;;;;9.27;4.45;;;;;;;31.38;41.45;100967.13;10390239;28;20037;-79
2022/08/04 07:44:43;;;;;;;12.43;4.18;;;;;;;31.62;41.58;100975.25;10405768;28;20385;-79
2022/08/04 07:49:44;;;;;;;9.02;3.75;;;;;;;33.09;36.79;100980.00;10419804;28;20029;-79
2022/08/04 07:54:44;;;;;;;9.35;3.25;;;;;;;33.70;36.30;100973.63;10403472;28;20449;-81
2022/08/04 07:59:46;;;;;;;9.98;3.13;;;;;;;34.00;36.32;100970.41;10421968;28;20041;-80
2022/08/04 08:04:47;;;;;;;8.45;3.30;;;;;;;33.71;35.43;100973.56;10382514;28;20037;-78
2022/08/04 08:09:47;;;;;;;10.65;4.15;;;;;;;34.62;35.99;100983.63;10362483;28;20741;-80
2022/08/04 08:14:48;;;;;;;6.25;2.70;;;;;;;34.80;34.25;100993.53;10381974;28;20389;-80
2022/08/04 08:19:48;;;;;;;10.57;3.83;;;;;;;34.35;35.51;100982.22;10405775;28;20086;-80
2022/08/04 08:24:49;;;;;;;8.50;3.63;;;;;;;34.95;33.90;100986.41;10405234;28;20036;-80
2022/08/04 08:29:49;;;;;;;7.60;3.38;;;;;;;34.53;36.18;100980.41;10405492;28;20075;-80
2022/08/04 08:34:50;;;;;;;9.82;3.40;;;;;;;35.52;33.07;100981.59;10405402;28;20049;-81
2022/08/04 08:40:16;;;;;;;10.43;2.97;;;;;;;35.16;32.02;100986.25;10376221;28;20055;-81
2022/08/04 08:45:41;;;;;;;5.93;2.22;;;;;;;36.09;31.68;100988.38;10396996;28;20059;-79
2022/08/04 08:51:06;;;;;;;9.43;2.25;;;;;;;36.08;31.87;100983.91;10437077;28;20098;-79
2022/08/04 08:56:29;;;;;;;6.20;2.63;;;;;;;36.33;31.28;100993.34;10365257;28;20045;-79
2022/08/04 09:01:42;;;;;;;6.43;3.40;;;;;;;35.34;32.99;100997.06;10368874;28;20057;-79
2022/08/04 09:06:51;;;;;;;6.97;2.70;;;;;;;34.47;34.30;100993.44;10389867;28;20042;-79
2022/08/04 09:12:06;;;;;;;7.38;2.22;;;;;;;36.02;32.89;101001.50;10406624;28;20452;-79
2022/08/04 09:17:12;;;;;;;4.90;2.20;;;;;;;36.78;31.94;101007.06;10390037;28;20057;-79
2022/08/04 09:22:25;;;;;;;9.93;2.60;;;;;;;36.33;32.08;101006.97;10372313;28;20060;-79
2022/08/04 09:27:41;;;;;;;7.25;3.28;;;;;;;33.80;34.73;101027.41;10389456;28;20034;-79
2022/08/04 09:32:57;;;;;;;6.43;2.80;;;;;;;32.33;38.29;101034.72;10403812;28;20036;-79
2022/08/04 09:38:25;;;;;;;6.18;3.03;;;;;;;34.09;36.28;101021.53;10375295;28;20427;-79
2022/08/04 09:43:36;;;;;;;7.60;3.00;;;;;;;34.82;34.56;101029.66;10385010;28;20041;-79
2022/08/04 09:48:49;;;;;;;7.40;3.20;;;;;;;33.78;35.67;101031.13;10403399;28;20041;-81
2022/08/04 09:54:06;;;;;;;8.88;2.83;;;;;;;33.80;37.20;101042.78;10400336;28;20400;-82
2022/08/04 09:59:48;;;;;;;5.30;2.58;;;;;;;33.55;37.44;101041.22;10402395;28;20045;-81
2022/08/04 10:04:48;;;;;;;7.22;3.60;;;;;;;32.06;39.69;101055.63;10401803;28;20064;-79
2022/08/04 10:10:07;;;;;;;;;;;;;;;31.38;41.54;101060.88;10402855;28;20574;-79
2022/08/04 10:15:19;;;;;;;9.77;3.00;;;;;;;30.83;44.32;101064.56;10402500;28;19939;-78
2022/08/04 10:20:50;;;;;;;13.13;3.08;;;;;;;30.32;43.63;101086.00;10403958;28;20045;-78
2022/08/04 10:26:09;;;;;;;7.88;3.97;;;;;;;30.59;44.04;101103.16;10402824;28;20033;-77
2022/08/04 10:31:12;;;;;;;15.20;4.07;;;;;;;30.50;44.07;101076.44;10401040;28;20455;-80
2022/08/04 10:36:13;;;;;;;9.75;2.90;;;;;;;29.99;43.86;101091.50;10385445;28;20473;-80
2022/08/04 10:41:23;;;;;;;6.43;3.53;;;;;;;29.22;47.16;101116.09;10392772;28;20237;-80
2022/08/04 10:46:27;;;;;;;14.43;4.40;;;;;;;28.02;53.27;101116.13;10404472;28;20045;-78
2022/08/04 10:51:51;;;;;;;40.22;28.90;;;;;;;27.09;57.33;101125.94;10395266;28;20048;-80
2022/08/04 10:56:55;;;;;;;17.02;12.20;;;;;;;26.52;57.40;101122.34;10382932;28;20065;-79
2022/08/04 11:02:03;;;;;;;82.53;52.22;;;;;;;26.13;62.06;101113.91;10384461;28;20143;-79
2022/08/04 11:07:04;;;;;;;10.38;6.63;;;;;;;26.34;62.64;101091.31;10401147;28;20504;-78
2022/08/04 11:12:16;;;;;;;14.87;5.20;;;;;;;26.92;62.30;101081.47;10394721;28;20049;-78
2022/08/04 11:17:20;;;;;;;10.52;4.78;;;;;;;27.35;59.04;101076.22;10366085;28;20116;-78
2022/08/04 11:22:20;;;;;;;9.52;4.20;;;;;;;28.82;56.99;101091.94;10395881;28;20401;-79
2022/08/04 11:27:28;;;;;;;11.10;4.50;;;;;;;30.11;48.10;101095.66;10399077;28;20048;-79
2022/08/04 11:33:05;;;;;;;11.02;4.10;;;;;;;30.83;47.65;101092.47;10381699;28;20033;-78
2022/08/04 11:38:10;;;;;;;9.85;4.25;;;;;;;32.23;43.19;101109.09;10375758;28;20046;-79
2022/08/04 11:43:27;;;;;;;15.15;3.67;;;;;;;31.85;43.41;101092.53;10343128;28;20045;-81
2022/08/04 11:48:41;;;;;;;17.75;10.88;;;;;;;31.09;44.29;101103.31;10341723;28;20046;-79
2022/08/04 11:53:42;;;;;;;15.27;9.05;;;;;;;30.88;46.09;101092.31;10324656;28;20503;-81
2022/08/04 11:58:43;;;;;;;10.27;5.85;;;;;;;30.70;45.36;101078.47;10341225;28;20156;-83
2022/08/04 12:03:56;;;;;;;;;;;;;;;30.91;44.46;101089.50;10342019;28;20041;-82
2022/08/04 12:09:07;;;;;;;11.68;4.88;;;;;;;31.59;44.24;101097.94;10358957;28;19914;-82
2022/08/04 12:14:14;;;;;;;10.07;3.90;;;;;;;32.16;41.01;101100.31;10358942;28;20553;-83
2022/08/04 12:19:22;;;;;;;17.02;4.65;;;;;;;32.57;42.06;101099.63;10361100;28;20514;-80
2022/08/04 12:24:26;;;;;;;11.90;6.00;;;;;;;33.85;38.69;101105.88;10355321;28;20050;-80
2022/08/04 12:29:27;;;;;;;11.18;5.10;;;;;;;35.12;35.99;101090.72;10370868;28;20060;-81
2022/08/04 12:34:31;;;;;;;11.38;4.45;;;;;;;35.77;34.56;101097.25;10352468;28;20052;-80
2022/08/04 12:39:31;;;;;;;11.15;4.20;;;;;;;36.24;34.24;101081.97;10425206;28;20060;-79
2022/08/04 12:44:33;;;;;;;9.10;5.07;;;;;;;35.54;35.40;101093.94;10412984;28;20452;-80
2022/08/04 12:49:34;;;;;;;7.35;3.20;;;;;;;34.74;35.24;101108.00;10430075;28;20377;-80
2022/08/04 12:54:36;;;;;;;11.07;4.25;;;;;;;33.33;40.45;101106.41;10388932;28;20029;-80
2022/08/04 12:59:40;;;;;;;14.18;4.75;;;;;;;32.59;40.91;101104.97;10388601;28;20038;-82
2022/08/04 13:04:43;;;;;;;11.82;4.43;;;;;;;32.15;40.36;101113.94;10419620;28;20067;-80
2022/08/04 13:09:44;;;;;;;8.65;3.50;;;;;;;32.71;41.18;101111.72;10428450;28;20040;-80
2022/08/04 13:14:47;;;;;;;7.88;2.90;;;;;;;33.78;39.17;101116.16;10427971;28;20132;-80
2022/08/04 13:19:48;;;;;;;10.75;3.95;;;;;;;35.59;34.78;101121.78;10390774;28;20056;-82
2022/08/04 13:24:49;;;;;;;14.57;4.47;;;;;;;35.49;35.22;101115.09;10390951;28;20059;-83
2022/08/04 13:29:51;;;;;;;12.85;5.25;;;;;;;33.41;39.21;101111.50;10427832;28;20547;-81
2022/08/04 13:34:54;;;;;;;9.30;4.53;;;;;;;33.15;39.03;101108.97;10412200;28;20045;-82
2022/08/04 13:39:54;;;;;;;13.50;4.97;;;;;;;32.04;41.14;101108.91;10428561;28;20079;-82
2022/08/04 13:44:56;;;;;;;;;;;;;;;31.40;42.81;101103.16;10411750;28;20493;-83
2022/08/04 13:50:16;;;;;;;8.57;4.15;;;;;;;31.39;43.34;101106.78;10444271;28;20011;-82
2022/08/04 13:55:24;;;;;;;14.48;5.05;;;;;;;30.25;46.70;101093.41;10411198;28;20033;-82
2022/08/04 14:00:25;;;;;;;9.18;5.10;;;;;;;29.29;49.28;101109.59;10412540;28;20041;-82
2022/08/04 14:05:26;;;;;;;15.27;7.20;;;;;;;28.73;51.24;101111.84;10395149;28;20431;-83
2022/08/04 14:10:27;;;;;;;7.85;5.32;;;;;;;28.49;52.75;101112.44;10428188;28;20090;-83
2022/08/04 14:15:41;;;;;;;17.42;6.95;;;;;;;28.23;54.37;101116.63;10411027;28;20037;-82
2022/08/04 14:21:00;;;;;;;9.55;5.50;;;;;;;27.92;55.03;101120.84;10445873;28;20033;-82
2022/08/04 14:26:12;;;;;;;7.63;5.05;;;;;;;27.69;54.51;101118.59;10427089;28;20032;-81
2022/08/04 14:31:15;;;;;;;9.32;4.78;;;;;;;27.74;54.88;101122.09;10410978;28;20373;-82
2022/08/04 14:36:16;;;;;;;7.75;4.97;;;;;;;27.90;54.03;101105.63;10443766;28;20068;-83
2022/08/04 14:41:19;;;;;;;10.55;4.03;;;;;;;28.18;53.94;101114.03;10410031;28;20117;-81
2022/08/04 14:46:20;;;;;;;16.15;5.65;;;;;;;28.94;52.47;101108.72;10406937;28;20092;-82
2022/08/04 14:51:20;;;;;;;7.18;4.10;;;;;;;29.29;51.40;101109.59;10382768;28;20061;-83
2022/08/04 14:56:21;;;;;;;9.00;4.00;;;;;;;29.47;50.68;101118.16;10368548;28;20120;-83
2022/08/04 15:01:21;;;;;;;9.57;5.00;;;;;;;30.67;47.04;101108.28;10403397;28;20047;-81
2022/08/04 15:06:24;;;;;;;7.13;3.73;;;;;;;30.09;48.29;101111.88;10383736;28;20045;-82
2022/08/04 15:11:25;;;;;;;14.90;5.20;;;;;;;29.21;50.47;101087.38;10375425;28;20123;-81
2022/08/04 15:16:27;;;;;;;12.18;4.80;;;;;;;29.14;51.61;101092.00;10423711;28;20083;-81
2022/08/04 15:21:28;;;;;;;9.10;3.75;;;;;;;28.61;52.42;101098.69;10408904;28;20045;-81
2022/08/04 15:26:31;;;;;;;7.72;4.18;;;;;;;28.60;52.76;101090.66;10408462;28;20079;-80
2022/08/04 15:31:36;;;;;;;13.48;5.13;;;;;;;28.40;52.60;101082.13;10441834;28;20056;-78
2022/08/04 15:36:43;;;;;;;14.75;5.53;;;;;;;28.69;52.98;101088.63;10337804;28;20560;-80
2022/08/04 15:41:59;;;;;;;10.85;3.72;;;;;;;28.95;52.28;101097.88;10342052;28;20037;-79
2022/08/04 15:47:03;;;;;;;10.23;4.13;;;;;;;29.28;48.76;101105.13;10358988;28;20030;-79
2022/08/04 15:52:06;;;;;;;8.18;3.67;;;;;;;29.69;48.11;101096.84;10319841;28;20053;-79
2022/08/04 15:57:07;;;;;;;15.63;10.77;;;;;;;29.45;48.27;101097.50;10358060;28;20091;-79
2022/08/04 16:02:27;;;;;;;8.27;5.45;;;;;;;28.97;49.86;101093.34;10338179;28;20042;-78
2022/08/04 16:07:56;;;;;;;15.00;4.77;;;;;;;28.87;51.56;101094.50;10361348;28;20096;-79
2022/08/04 16:13:00;;;;;;;7.43;3.40;;;;;;;28.69;52.01;101096.69;10322044;28;20047;-80
2022/08/04 16:18:01;;;;;;;9.25;4.55;;;;;;;28.72;52.34;101085.00;10307332;28;20030;-80
2022/08/04 16:23:14;;;;;;;15.60;9.30;;;;;;;28.70;52.32;101081.44;10340224;28;20061;-79
2022/08/04 16:28:42;;;;;;;8.48;3.67;;;;;;;28.95;51.05;101075.47;10321686;28;20097;-79
2022/08/04 16:33:44;;;;;;;7.82;4.38;;;;;;;28.75;50.47;101062.47;10300923;28;20064;-79
2022/08/04 16:39:01;;;;;;;11.40;4.30;;;;;;;28.45;51.52;101065.00;10340532;28;20084;-79
2022/08/04 16:44:27;;;;;;;13.82;4.95;;;;;;;27.91;52.59;101067.97;10344386;28;20049;-77
2022/08/04 16:49:28;;;;;;;10.63;4.78;;;;;;;27.47;53.69;101072.44;10357875;28;20052;-79
2022/08/04 16:54:32;;;;;;;8.15;2.75;;;;;;;27.29;54.09;101079.94;10348635;28;20351;-78
2022/08/04 16:59:33;;;;;;;10.35;4.22;;;;;;;27.03;53.20;101075.91;10366676;28;20382;-78
2022/08/04 17:04:33;;;;;;;5.90;3.30;;;;;;;26.74;53.83;101065.63;10359990;28;20068;-78
2022/08/04 17:09:34;;;;;;;6.63;2.93;;;;;;;26.59;54.97;101066.78;10340914;28;20096;-77
2022/08/04 17:14:34;;;;;;;8.20;3.40;;;;;;;26.72;53.32;101063.00;10355273;28;20483;-77
2022/08/04 17:19:36;;;;;;;7.53;2.80;;;;;;;26.49;55.24;101063.34;10355718;28;20107;-79
2022/08/04 17:24:37;;;;;;;11.48;4.28;;;;;;;26.24;56.67;101055.66;10344224;28;20046;-80
2022/08/04 17:29:38;;;;;;;7.88;3.78;;;;;;;26.05;56.65;101050.53;10364104;28;20034;-80
2022/08/04 17:34:44;;;;;;;7.07;4.07;;;;;;;26.12;56.45;101054.03;10391061;28;20044;-80
2022/08/04 17:39:46;;;;;;;6.22;3.70;;;;;;;25.87;57.74;101059.72;10394990;28;20064;-79
2022/08/04 17:44:47;;;;;;;7.65;3.80;;;;;;;25.85;58.15;101063.31;10412459;28;20073;-79
2022/08/04 17:49:48;;;;;;;7.28;3.42;;;;;;;25.60;60.09;101064.53;10428233;28;20063;-79
2022/08/04 17:54:57;;;;;;;9.27;4.57;;;;;;;25.38;60.25;101063.84;10426811;28;20029;-79
2022/08/04 18:00:00;;;;;;;9.63;3.90;;;;;;;25.25;59.73;101068.47;10387313;28;20033;-80
2022/08/04 18:05:01;;;;;;;6.03;3.50;;;;;;;25.11;61.06;101079.28;10388086;28;20053;-80
2022/08/04 18:10:02;;;;;;;8.02;3.50;;;;;;;24.79;61.82;101080.47;10404739;28;20064;-80
2022/08/04 18:15:22;;;;;;;6.70;3.07;;;;;;;24.43;60.43;101088.72;10403385;28;20117;-80
2022/08/04 18:20:24;;;;;;;6.50;3.05;;;;;;;24.13;61.53;101089.78;10389258;28;20764;-80
2022/08/04 18:25:24;;;;;;;;;;;;;;;24.07;60.79;101096.06;10386893;28;20096;-80
2022/08/04 18:30:25;;;;;;;7.07;2.55;;;;;;;23.88;60.72;101112.16;10402154;28;20502;-80
2022/08/04 18:35:27;;;;;;;6.18;3.47;;;;;;;23.97;59.42;101110.31;10383478;28;20060;-79
2022/08/04 18:40:27;;;;;;;;;;;;;;;23.90;59.91;101123.72;10400602;28;20049;-80
2022/08/04 18:45:28;;;;;;;4.33;2.63;;;;;;;23.66;60.36;101130.00;10385893;28;19921;-79
2022/08/04 18:50:28;;;;;;;7.30;2.93;;;;;;;23.25;62.63;101131.88;10384765;28;20271;-80
2022/08/04 18:55:30;;;;;;;7.67;2.93;;;;;;;22.86;64.50;101146.97;10399492;28;20128;-80
2022/08/04 19:00:30;;;;;;;6.13;3.28;;;;;;;22.58;65.44;101155.78;10400940;28;20776;-80
2022/08/04 19:05:36;;;;;;;8.33;4.07;;;;;;;22.42;66.52;101159.25;10401652;28;20124;-80
2022/08/04 19:10:37;;;;;;;7.03;3.17;;;;;;;22.33;67.33;101169.91;10400455;28;20040;-80
2022/08/04 19:15:37;;;;;;;13.10;5.00;;;;;;;22.14;68.38;101176.06;10402437;28;20454;-81
2022/08/04 19:20:38;;;;;;;15.13;5.00;;;;;;;21.96;69.88;101170.63;10401537;28;20038;-81
2022/08/04 19:25:39;;;;;;;8.52;3.55;;;;;;;21.79;70.43;101186.50;10400563;28;20034;-81
2022/08/04 19:30:39;;;;;;;4.90;3.83;;;;;;;21.65;71.04;101191.75;10381142;28;20037;-81
2022/08/04 19:35:40;;;;;;;6.87;3.23;;;;;;;21.65;70.27;101200.63;10398808;28;20059;-82
2022/08/04 19:40:42;;;;;;;10.27;3.63;;;;;;;21.70;69.85;101217.53;10397268;28;20037;-82
2022/08/04 19:45:45;;;;;;;5.90;3.15;;;;;;;21.77;68.67;101217.56;10399975;28;20045;-81
2022/08/04 19:50:46;;;;;;;6.30;3.30;;;;;;;21.85;67.30;101231.84;10365985;28;20497;-85
2022/08/04 19:55:47;;;;;;;4.85;3.22;;;;;;;21.89;67.08;101235.44;10381907;28;20048;-79
2022/08/04 20:00:47;;;;;;;7.83;3.40;;;;;;;21.94;66.13;101239.88;10398494;28;20052;-78
2022/08/04 20:05:48;;;;;;;4.00;2.37;;;;;;;22.07;64.38;101254.19;10399959;28;20133;-79
2022/08/04 20:10:49;;;;;;;7.17;3.03;;;;;;;22.09;63.57;101267.53;10383682;28;20500;-79
2022/08/04 20:15:51;;;;;;;6.30;2.97;;;;;;;22.19;61.31;101280.03;10400160;28;20038;-79
2022/08/04 20:20:51;;;;;;;;;;;;;;;22.19;62.31;101285.34;10384874;28;20052;-80
2022/08/04 20:25:51;;;;;;;8.87;3.13;;;;;;;22.12;61.32;101287.09;10393582;28;19947;-79
2022/08/04 20:30:52;;;;;;;11.90;2.80;;;;;;;21.93;61.14;101290.53;10390963;28;20846;-86
2022/08/04 20:35:53;;;;;;;10.40;2.47;;;;;;;21.81;61.26;101294.88;10373381;28;20045;-80
2022/08/04 20:40:53;;;;;;;4.53;2.53;;;;;;;21.78;61.05;101293.94;10392193;28;20087;-79
2022/08/04 20:45:54;;;;;;;11.60;2.85;;;;;;;21.76;60.87;101299.28;10382312;28;20132;-79
2022/08/04 20:50:54;;;;;;;6.70;2.10;;;;;;;21.57;61.74;101324.81;10379859;28;20148;-80
2022/08/04 20:55:55;;;;;;;7.47;2.17;;;;;;;21.53;61.76;101353.19;10361836;28;20037;-80
2022/08/04 21:00:55;;;;;;;5.50;2.40;;;;;;;21.63;60.85;101362.19;10403998;28;20172;-80
2022/08/04 21:05:58;;;;;;;7.70;2.83;;;;;;;21.64;59.96;101368.41;10388760;28;20141;-80
2022/08/04 21:10:59;;;;;;;4.55;2.88;;;;;;;21.50;62.76;101406.41;10377622;28;20037;-79
2022/08/04 21:16:02;;;;;;;11.07;4.82;;;;;;;20.77;71.21;101450.69;10404702;28;20060;-82
2022/08/04 21:21:03;;;;;;;11.20;5.30;;;;;;;19.46;79.29;101399.75;10387139;28;21891;-83
2022/08/04 21:26:03;;;;;;;11.93;7.10;;;;;;;18.56;89.79;101366.00;10403913;28;20042;-82
2022/08/04 21:31:04;;;;;;;16.20;6.03;;;;;;;18.33;91.47;101346.91;10370208;28;20039;-81
2022/08/04 21:36:05;;;;;;;14.35;6.45;;;;;;;18.00;94.46;101361.13;10368944;28;20037;-82
2022/08/04 21:41:06;;;;;;;10.23;6.18;;;;;;;17.46;96.10;101334.16;10387211;28;20050;-83
2022/08/04 21:46:06;;;;;;;12.88;6.70;;;;;;;17.20;99.60;101284.06;10387423;28;20117;-82
2022/08/04 21:51:18;;;;;;;11.98;7.28;;;;;;;17.15;100.00;101298.94;10386268;28;20038;-79
2022/08/04 21:56:18;;;;;;;13.10;7.17;;;;;;;17.12;100.00;101280.31;10402211;28;20037;-80
2022/08/04 22:01:19;;;;;;;12.38;7.95;;;;;;;17.12;100.00;101257.44;10400149;28;20040;-78
2022/08/04 22:06:19;;;;;;;17.67;8.07;;;;;;;17.09;100.00;101248.50;10369744;28;20061;-78
2022/08/04 22:11:27;;;;;;;11.57;7.57;;;;;;;17.00;100.00;101225.38;10385355;28;20477;-77
2022/08/04 22:16:30;;;;;;;10.13;7.30;;;;;;;16.93;100.00;101218.97;10388339;28;20139;-78
2022/08/04 22:21:31;;;;;;;12.93;7.88;;;;;;;16.91;100.00;101219.81;10404209;28;20034;-78
2022/08/04 22:26:31;;;;;;;15.95;8.50;;;;;;;16.84;100.00;101216.09;10385497;28;20056;-77
2022/08/04 22:31:32;;;;;;;11.93;8.75;;;;;;;16.88;100.00;101205.66;10424661;28;20047;-77
2022/08/04 22:36:32;;;;;;;17.77;9.18;;;;;;;16.82;100.00;101231.00;10358927;28;20033;-77
2022/08/04 22:41:33;;;;;;;14.45;9.98;;;;;;;16.81;100.00;101224.84;10324698;28;20030;-77
2022/08/04 22:46:33;;;;;;;13.85;9.35;;;;;;;16.69;100.00;101212.16;10352683;28;20052;-77
2022/08/04 22:51:34;;;;;;;19.50;11.65;;;;;;;16.69;100.00;101220.09;10350556;28;20037;-77
2022/08/04 22:56:34;;;;;;;17.52;10.32;;;;;;;16.66;100.00;101217.38;10360477;28;20049;-77
2022/08/04 23:01:35;;;;;;;16.83;11.32;;;;;;;16.64;100.00;101213.78;10334030;28;20122;-78
2022/08/04 23:06:36;;;;;;;13.63;10.68;;;;;;;16.42;100.00;101229.03;10304360;28;20053;-78
2022/08/04 23:11:36;;;;;;;12.98;10.93;;;;;;;16.32;100.00;101257.78;10321669;28;20121;-77
2022/08/04 23:16:37;;;;;;;19.38;13.73;;;;;;;16.27;100.00;101253.25;10303209;28;20568;-77
2022/08/04 23:21:37;;;;;;;16.77;11.02;;;;;;;16.14;100.00;101246.69;10347173;28;20038;-77
2022/08/04 23:26:38;;;;;;;18.50;13.00;;;;;;;16.10;100.00;101255.34;10344558;28;20389;-77
2022/08/04 23:31:38;;;;;;;18.48;13.45;;;;;;;16.07;100.00;101265.81;10333826;28;20129;-77